Houston's Hourly Summary for Sunday, July 8, 2018
Hour Temp
(f)
RH
(%)
Solar Rad.
(MJ/m2)
Rainfall
(in)
Wind
(mph)
7/8/2018 12:00 AM 77 85 0 0 0
7/8/2018 1:00 AM 76 92 0 0 0
7/8/2018 2:00 AM 76 93 0 0 0
7/8/2018 3:00 AM 76 93 0 0 0
7/8/2018 4:00 AM 75 94 0 0 0
7/8/2018 5:00 AM 75 94 0 0.01 0
7/8/2018 6:00 AM 74 95 0 0 0
7/8/2018 7:00 AM 74 94 0.02 0 0
7/8/2018 8:00 AM 75 89 0.19 0 0
7/8/2018 9:00 AM 79 73 1.21 0 0
7/8/2018 10:00 AM 81 71 1.07 0 0
7/8/2018 11:00 AM 84 60 2.27 0 0
7/8/2018 12:00 PM 81 62 0.72 0 3.11
7/8/2018 1:00 PM 76 78 0.17 0 1.57
7/8/2018 2:00 PM 76 84 0.39 0 0.48
7/8/2018 3:00 PM 77 85 0.64 0 1.08
7/8/2018 4:00 PM 77 85 0.67 0.01 1.19
7/8/2018 5:00 PM 78 82 0.54 0 0.93
7/8/2018 6:00 PM 78 75 0.6 0 2.31
7/8/2018 7:00 PM 79 74 0.58 0 1.51
7/8/2018 8:00 PM 79 75 0.2 0 0.42
7/8/2018 9:00 PM 77 80 0.02 0 0
7/8/2018 10:00 PM 75 91 0 0 0
7/8/2018 11:00 PM 76 87 0 0 0
Data Summary 77 82 9.29 0.02 0.53